Lone Pine, Idaho
Current Conditions -  °F | °C
As of 2:55 AM on Thursday 18 Dec 2014 (Local Time) from KLLJ Reporting Station
Overcast Overcast  
Wind Chill: 18°   Ceiling: 7500
Heat Index: 18°   Visibility: 10mi
Dew Point: 16°   Wind: 0mph
Humidity: 92%   Direction: NA
Pressure: 30.06"   Gusts: NA
Location:  44.5987°N, 113.355°W
Report Text: KLLJ 180955Z AUTO 00000KT 10SM OVC075 M08/M09 A3006 RMK AO2 SLP216 T10781089
Loading
Personal Weather Stations






























Interactive Weather Map New forecast layout! Learn more

10-Day Weather Forecast

Advertisements
Track Severe Weather on mobile